sensor_id;sensor_type;location;lat;lon;timestamp;temperature;humidity
11126;DHT22;5617;54.046;10.676;2023-08-07T00:01:44;16.50;99.90
11126;DHT22;5617;54.046;10.676;2023-08-07T00:03:52;16.50;99.90
11126;DHT22;5617;54.046;10.676;2023-08-07T00:06:08;16.50;99.90
11126;DHT22;5617;54.046;10.676;2023-08-07T00:08:16;16.50;99.90
11126;DHT22;5617;54.046;10.676;2023-08-07T00:10:24;16.50;99.90
11126;DHT22;5617;54.046;10.676;2023-08-07T00:12:32;16.50;99.90
11126;DHT22;5617;54.046;10.676;2023-08-07T00:14:40;16.40;99.90
11126;DHT22;5617;54.046;10.676;2023-08-07T00:16:47;16.40;99.90
11126;DHT22;5617;54.046;10.676;2023-08-07T00:18:55;16.50;99.90
11126;DHT22;5617;54.046;10.676;2023-08-07T00:21:04;16.40;99.90
11126;DHT22;5617;54.046;10.676;2023-08-07T00:23:13;16.40;99.90
11126;DHT22;5617;54.046;10.676;2023-08-07T00:25:21;16.40;99.90
11126;DHT22;5617;54.046;10.676;2023-08-07T00:27:29;16.40;99.90
11126;DHT22;5617;54.046;10.676;2023-08-07T00:29:36;16.30;99.90
11126;DHT22;5617;54.046;10.676;2023-08-07T00:31:46;16.30;99.90
11126;DHT22;5617;54.046;10.676;2023-08-07T00:33:54;16.40;99.90
11126;DHT22;5617;54.046;10.676;2023-08-07T00:36:03;16.30;99.90
11126;DHT22;5617;54.046;10.676;2023-08-07T00:38:11;16.30;99.90
11126;DHT22;5617;54.046;10.676;2023-08-07T00:40:20;16.30;99.90
11126;DHT22;5617;54.046;10.676;2023-08-07T00:42:28;16.30;99.90
11126;DHT22;5617;54.046;10.676;2023-08-07T00:44:36;16.30;99.90
11126;DHT22;5617;54.046;10.676;2023-08-07T00:46:44;16.30;99.90
11126;DHT22;5617;54.046;10.676;2023-08-07T00:48:54;16.20;99.90
11126;DHT22;5617;54.046;10.676;2023-08-07T00:51:03;16.20;99.90
11126;DHT22;5617;54.046;10.676;2023-08-07T00:53:11;16.20;99.90
11126;DHT22;5617;54.046;10.676;2023-08-07T00:55:20;16.20;99.90
11126;DHT22;5617;54.046;10.676;2023-08-07T00:57:28;16.20;99.90
11126;DHT22;5617;54.046;10.676;2023-08-07T00:59:39;16.20;99.90
11126;DHT22;5617;54.046;10.676;2023-08-07T01:01:48;16.20;99.90
11126;DHT22;5617;54.046;10.676;2023-08-07T01:03:56;16.10;99.90
11126;DHT22;5617;54.046;10.676;2023-08-07T01:06:04;16.10;99.90
11126;DHT22;5617;54.046;10.676;2023-08-07T01:08:12;16.10;99.90
11126;DHT22;5617;54.046;10.676;2023-08-07T01:10:25;16.10;99.90
11126;DHT22;5617;54.046;10.676;2023-08-07T01:12:38;16.00;99.90
11126;DHT22;5617;54.046;10.676;2023-08-07T01:14:52;16.00;99.90
11126;DHT22;5617;54.046;10.676;2023-08-07T01:17:06;16.00;99.90
11126;DHT22;5617;54.046;10.676;2023-08-07T01:19:24;16.00;99.90
11126;DHT22;5617;54.046;10.676;2023-08-07T01:21:32;16.00;99.90
11126;DHT22;5617;54.046;10.676;2023-08-07T01:23:41;15.90;99.90
11126;DHT22;5617;54.046;10.676;2023-08-07T01:25:49;15.90;99.90
11126;DHT22;5617;54.046;10.676;2023-08-07T01:28:02;15.90;99.90
11126;DHT22;5617;54.046;10.676;2023-08-07T01:30:15;15.90;99.90
11126;DHT22;5617;54.046;10.676;2023-08-07T01:32:29;15.90;99.90
11126;DHT22;5617;54.046;10.676;2023-08-07T01:34:41;15.80;99.90
11126;DHT22;5617;54.046;10.676;2023-08-07T01:36:50;15.80;99.90
11126;DHT22;5617;54.046;10.676;2023-08-07T01:39:01;15.80;99.90
11126;DHT22;5617;54.046;10.676;2023-08-07T01:41:10;15.80;99.90
11126;DHT22;5617;54.046;10.676;2023-08-07T01:43:20;15.80;99.90
11126;DHT22;5617;54.046;10.676;2023-08-07T01:45:29;15.70;99.90
11126;DHT22;5617;54.046;10.676;2023-08-07T01:47:36;15.70;99.90
11126;DHT22;5617;54.046;10.676;2023-08-07T01:49:44;15.80;99.90
11126;DHT22;5617;54.046;10.676;2023-08-07T01:51:52;15.70;99.90
11126;DHT22;5617;54.046;10.676;2023-08-07T01:54:08;15.70;99.90
11126;DHT22;5617;54.046;10.676;2023-08-07T01:56:18;15.70;99.90
11126;DHT22;5617;54.046;10.676;2023-08-07T01:58:26;15.60;99.90
11126;DHT22;5617;54.046;10.676;2023-08-07T02:00:34;15.60;99.90
11126;DHT22;5617;54.046;10.676;2023-08-07T02:02:42;15.60;99.90
11126;DHT22;5617;54.046;10.676;2023-08-07T02:04:51;15.60;99.90
11126;DHT22;5617;54.046;10.676;2023-08-07T02:06:59;15.60;99.90
11126;DHT22;5617;54.046;10.676;2023-08-07T02:09:08;15.60;99.90
11126;DHT22;5617;54.046;10.676;2023-08-07T02:11:16;15.60;99.90
11126;DHT22;5617;54.046;10.676;2023-08-07T02:13:24;15.60;99.90
11126;DHT22;5617;54.046;10.676;2023-08-07T02:15:32;15.60;99.90
11126;DHT22;5617;54.046;10.676;2023-08-07T02:17:42;15.60;99.90
11126;DHT22;5617;54.046;10.676;2023-08-07T02:19:50;15.50;99.90
11126;DHT22;5617;54.046;10.676;2023-08-07T02:21:58;15.60;99.90
11126;DHT22;5617;54.046;10.676;2023-08-07T02:24:13;15.50;99.90
11126;DHT22;5617;54.046;10.676;2023-08-07T02:26:21;15.60;99.90
11126;DHT22;5617;54.046;10.676;2023-08-07T02:28:29;15.50;99.90
11126;DHT22;5617;54.046;10.676;2023-08-07T02:30:36;15.50;99.90
11126;DHT22;5617;54.046;10.676;2023-08-07T02:32:43;15.50;99.90
11126;DHT22;5617;54.046;10.676;2023-08-07T02:34:53;15.50;99.90
11126;DHT22;5617;54.046;10.676;2023-08-07T02:37:00;15.50;99.90
11126;DHT22;5617;54.046;10.676;2023-08-07T02:39:10;15.50;99.90
11126;DHT22;5617;54.046;10.676;2023-08-07T02:41:18;15.50;99.90
11126;DHT22;5617;54.046;10.676;2023-08-07T02:43:26;15.50;99.90
11126;DHT22;5617;54.046;10.676;2023-08-07T02:45:35;15.50;99.90
11126;DHT22;5617;54.046;10.676;2023-08-07T02:47:43;15.50;99.90
11126;DHT22;5617;54.046;10.676;2023-08-07T02:49:50;15.50;99.90
11126;DHT22;5617;54.046;10.676;2023-08-07T02:51:58;15.40;99.90
11126;DHT22;5617;54.046;10.676;2023-08-07T02:54:11;15.40;99.90
11126;DHT22;5617;54.046;10.676;2023-08-07T02:56:19;15.40;99.90
11126;DHT22;5617;54.046;10.676;2023-08-07T02:58:26;15.40;99.90
11126;DHT22;5617;54.046;10.676;2023-08-07T03:00:35;15.40;99.90
11126;DHT22;5617;54.046;10.676;2023-08-07T03:02:42;15.40;99.90
11126;DHT22;5617;54.046;10.676;2023-08-07T03:04:50;15.40;99.90
11126;DHT22;5617;54.046;10.676;2023-08-07T03:06:58;15.40;99.90
11126;DHT22;5617;54.046;10.676;2023-08-07T03:09:05;15.40;99.90
11126;DHT22;5617;54.046;10.676;2023-08-07T03:11:15;15.40;99.90
11126;DHT22;5617;54.046;10.676;2023-08-07T03:13:23;15.40;99.90
11126;DHT22;5617;54.046;10.676;2023-08-07T03:15:35;15.40;99.90
11126;DHT22;5617;54.046;10.676;2023-08-07T03:17:43;15.40;99.90
11126;DHT22;5617;54.046;10.676;2023-08-07T03:19:51;15.30;99.90
11126;DHT22;5617;54.046;10.676;2023-08-07T03:21:59;15.30;99.90
11126;DHT22;5617;54.046;10.676;2023-08-07T03:24:06;15.30;99.90
11126;DHT22;5617;54.046;10.676;2023-08-07T03:26:20;15.30;99.90
11126;DHT22;5617;54.046;10.676;2023-08-07T03:28:27;15.30;99.90
11126;DHT22;5617;54.046;10.676;2023-08-07T03:30:35;15.30;99.90
11126;DHT22;5617;54.046;10.676;2023-08-07T03:32:44;15.30;99.90
11126;DHT22;5617;54.046;10.676;2023-08-07T03:34:52;15.30;99.90
11126;DHT22;5617;54.046;10.676;2023-08-07T03:37:00;15.30;99.90
11126;DHT22;5617;54.046;10.676;2023-08-07T03:39:08;15.30;99.90
11126;DHT22;5617;54.046;10.676;2023-08-07T03:41:17;15.30;99.90
11126;DHT22;5617;54.046;10.676;2023-08-07T03:43:26;15.30;99.90
11126;DHT22;5617;54.046;10.676;2023-08-07T03:45:34;15.30;99.90
11126;DHT22;5617;54.046;10.676;2023-08-07T03:47:42;15.30;99.90
11126;DHT22;5617;54.046;10.676;2023-08-07T03:49:49;15.30;99.90
11126;DHT22;5617;54.046;10.676;2023-08-07T03:52:00;15.30;99.90
11126;DHT22;5617;54.046;10.676;2023-08-07T03:54:08;15.30;99.90
11126;DHT22;5617;54.046;10.676;2023-08-07T03:56:16;15.30;99.90
11126;DHT22;5617;54.046;10.676;2023-08-07T03:58:23;15.30;99.90
11126;DHT22;5617;54.046;10.676;2023-08-07T04:00:32;15.30;99.90
11126;DHT22;5617;54.046;10.676;2023-08-07T04:02:40;15.30;99.90
11126;DHT22;5617;54.046;10.676;2023-08-07T04:04:48;15.30;99.90
11126;DHT22;5617;54.046;10.676;2023-08-07T04:06:56;15.30;99.90
11126;DHT22;5617;54.046;10.676;2023-08-07T04:09:04;15.30;99.90
11126;DHT22;5617;54.046;10.676;2023-08-07T04:11:12;15.30;99.90
11126;DHT22;5617;54.046;10.676;2023-08-07T04:13:20;15.30;99.90
11126;DHT22;5617;54.046;10.676;2023-08-07T04:15:28;15.30;99.90
11126;DHT22;5617;54.046;10.676;2023-08-07T04:17:37;15.40;99.90
11126;DHT22;5617;54.046;10.676;2023-08-07T04:19:45;15.40;99.90
11126;DHT22;5617;54.046;10.676;2023-08-07T04:21:53;15.40;99.90
11126;DHT22;5617;54.046;10.676;2023-08-07T04:24:00;15.40;99.90
11126;DHT22;5617;54.046;10.676;2023-08-07T04:26:14;15.40;99.90
11126;DHT22;5617;54.046;10.676;2023-08-07T04:28:24;15.40;99.90
11126;DHT22;5617;54.046;10.676;2023-08-07T04:30:32;15.40;99.90
11126;DHT22;5617;54.046;10.676;2023-08-07T04:32:42;15.40;99.90
11126;DHT22;5617;54.046;10.676;2023-08-07T04:34:49;15.40;99.90
11126;DHT22;5617;54.046;10.676;2023-08-07T04:36:57;15.40;99.90
11126;DHT22;5617;54.046;10.676;2023-08-07T04:39:05;15.50;99.90
11126;DHT22;5617;54.046;10.676;2023-08-07T04:41:13;15.50;99.90
11126;DHT22;5617;54.046;10.676;2023-08-07T04:43:21;15.50;99.90
11126;DHT22;5617;54.046;10.676;2023-08-07T04:45:29;15.50;99.90
11126;DHT22;5617;54.046;10.676;2023-08-07T04:47:37;15.50;99.90
11126;DHT22;5617;54.046;10.676;2023-08-07T04:49:47;15.50;99.90
11126;DHT22;5617;54.046;10.676;2023-08-07T04:51:54;15.50;99.90
11126;DHT22;5617;54.046;10.676;2023-08-07T04:54:02;15.50;99.90
11126;DHT22;5617;54.046;10.676;2023-08-07T04:56:10;15.60;99.90
11126;DHT22;5617;54.046;10.676;2023-08-07T04:58:18;15.60;99.90
11126;DHT22;5617;54.046;10.676;2023-08-07T05:00:27;15.60;99.90
11126;DHT22;5617;54.046;10.676;2023-08-07T05:02:35;15.60;99.90
11126;DHT22;5617;54.046;10.676;2023-08-07T05:04:43;15.70;99.90
11126;DHT22;5617;54.046;10.676;2023-08-07T05:06:53;15.60;99.90
11126;DHT22;5617;54.046;10.676;2023-08-07T05:09:01;15.70;99.90
11126;DHT22;5617;54.046;10.676;2023-08-07T05:11:09;15.70;99.90
11126;DHT22;5617;54.046;10.676;2023-08-07T05:13:17;15.80;99.90
11126;DHT22;5617;54.046;10.676;2023-08-07T05:15:26;15.80;99.90
11126;DHT22;5617;54.046;10.676;2023-08-07T05:17:37;15.80;99.90
11126;DHT22;5617;54.046;10.676;2023-08-07T05:19:44;15.80;99.90
11126;DHT22;5617;54.046;10.676;2023-08-07T05:21:53;15.80;99.90
11126;DHT22;5617;54.046;10.676;2023-08-07T05:24:01;15.80;99.90
11126;DHT22;5617;54.046;10.676;2023-08-07T05:26:11;15.90;99.90
11126;DHT22;5617;54.046;10.676;2023-08-07T05:28:21;15.90;99.90
11126;DHT22;5617;54.046;10.676;2023-08-07T05:30:29;15.90;99.90
11126;DHT22;5617;54.046;10.676;2023-08-07T05:32:38;16.00;99.90
11126;DHT22;5617;54.046;10.676;2023-08-07T05:34:45;16.00;99.90
11126;DHT22;5617;54.046;10.676;2023-08-07T05:36:55;16.00;99.90
11126;DHT22;5617;54.046;10.676;2023-08-07T05:39:05;16.10;99.90
11126;DHT22;5617;54.046;10.676;2023-08-07T05:41:13;16.10;99.90
11126;DHT22;5617;54.046;10.676;2023-08-07T05:43:23;16.10;99.90
11126;DHT22;5617;54.046;10.676;2023-08-07T05:45:31;16.20;99.90
11126;DHT22;5617;54.046;10.676;2023-08-07T05:47:39;16.20;99.90
11126;DHT22;5617;54.046;10.676;2023-08-07T05:49:47;16.20;99.90
11126;DHT22;5617;54.046;10.676;2023-08-07T05:51:57;16.30;99.90
11126;DHT22;5617;54.046;10.676;2023-08-07T05:54:05;16.30;99.90
11126;DHT22;5617;54.046;10.676;2023-08-07T05:56:13;16.30;99.90
11126;DHT22;5617;54.046;10.676;2023-08-07T05:58:21;16.30;99.90
11126;DHT22;5617;54.046;10.676;2023-08-07T06:00:29;16.40;99.90
11126;DHT22;5617;54.046;10.676;2023-08-07T06:02:37;16.40;99.90
11126;DHT22;5617;54.046;10.676;2023-08-07T06:04:44;16.40;99.90
11126;DHT22;5617;54.046;10.676;2023-08-07T06:06:52;16.40;99.90
11126;DHT22;5617;54.046;10.676;2023-08-07T06:09:03;16.50;99.90
11126;DHT22;5617;54.046;10.676;2023-08-07T06:11:11;16.50;99.90
11126;DHT22;5617;54.046;10.676;2023-08-07T06:13:18;16.50;99.90
11126;DHT22;5617;54.046;10.676;2023-08-07T06:15:42;16.50;99.90
11126;DHT22;5617;54.046;10.676;2023-08-07T06:17:50;16.60;99.90
11126;DHT22;5617;54.046;10.676;2023-08-07T06:20:00;16.60;99.90
11126;DHT22;5617;54.046;10.676;2023-08-07T06:22:08;16.60;99.90
11126;DHT22;5617;54.046;10.676;2023-08-07T06:24:17;16.60;99.90
11126;DHT22;5617;54.046;10.676;2023-08-07T06:26:24;16.70;99.90
11126;DHT22;5617;54.046;10.676;2023-08-07T06:28:33;16.80;99.90
11126;DHT22;5617;54.046;10.676;2023-08-07T06:30:45;16.70;99.90
11126;DHT22;5617;54.046;10.676;2023-08-07T06:32:55;16.80;99.90
11126;DHT22;5617;54.046;10.676;2023-08-07T06:35:03;16.80;99.90
11126;DHT22;5617;54.046;10.676;2023-08-07T06:37:13;16.80;99.90
11126;DHT22;5617;54.046;10.676;2023-08-07T06:39:22;16.80;99.90
11126;DHT22;5617;54.046;10.676;2023-08-07T06:41:30;16.90;99.90
11126;DHT22;5617;54.046;10.676;2023-08-07T06:43:38;16.90;99.90
11126;DHT22;5617;54.046;10.676;2023-08-07T06:45:47;16.90;99.90
11126;DHT22;5617;54.046;10.676;2023-08-07T06:47:55;16.90;99.90
11126;DHT22;5617;54.046;10.676;2023-08-07T06:50:03;16.90;99.90
11126;DHT22;5617;54.046;10.676;2023-08-07T06:52:13;17.00;99.90
11126;DHT22;5617;54.046;10.676;2023-08-07T06:54:26;17.00;99.90
11126;DHT22;5617;54.046;10.676;2023-08-07T06:56:34;17.00;99.90
11126;DHT22;5617;54.046;10.676;2023-08-07T06:58:42;17.10;99.90
11126;DHT22;5617;54.046;10.676;2023-08-07T07:00:49;17.10;99.90
11126;DHT22;5617;54.046;10.676;2023-08-07T07:02:57;17.10;99.90
11126;DHT22;5617;54.046;10.676;2023-08-07T07:05:05;17.20;99.90
11126;DHT22;5617;54.046;10.676;2023-08-07T07:07:14;17.20;99.90
11126;DHT22;5617;54.046;10.676;2023-08-07T07:09:23;17.20;99.90
11126;DHT22;5617;54.046;10.676;2023-08-07T07:11:31;17.20;99.90
11126;DHT22;5617;54.046;10.676;2023-08-07T07:13:39;17.20;99.90
11126;DHT22;5617;54.046;10.676;2023-08-07T07:15:53;17.20;99.90
11126;DHT22;5617;54.046;10.676;2023-08-07T07:18:01;17.30;99.90
11126;DHT22;5617;54.046;10.676;2023-08-07T07:20:10;17.30;99.90
11126;DHT22;5617;54.046;10.676;2023-08-07T07:22:18;17.30;99.90
11126;DHT22;5617;54.046;10.676;2023-08-07T07:24:27;17.30;99.90
11126;DHT22;5617;54.046;10.676;2023-08-07T07:26:35;17.30;99.90
11126;DHT22;5617;54.046;10.676;2023-08-07T07:28:45;17.40;99.90
11126;DHT22;5617;54.046;10.676;2023-08-07T07:30:53;17.40;99.90
11126;DHT22;5617;54.046;10.676;2023-08-07T07:33:01;17.50;99.90
11126;DHT22;5617;54.046;10.676;2023-08-07T07:35:09;17.50;99.90
11126;DHT22;5617;54.046;10.676;2023-08-07T07:37:17;17.40;99.90
11126;DHT22;5617;54.046;10.676;2023-08-07T07:39:29;17.40;99.90
11126;DHT22;5617;54.046;10.676;2023-08-07T07:41:37;17.40;99.90
11126;DHT22;5617;54.046;10.676;2023-08-07T07:43:45;17.40;99.90
11126;DHT22;5617;54.046;10.676;2023-08-07T07:45:54;17.40;99.90
11126;DHT22;5617;54.046;10.676;2023-08-07T07:48:02;17.50;99.90
11126;DHT22;5617;54.046;10.676;2023-08-07T07:50:11;17.50;99.90
11126;DHT22;5617;54.046;10.676;2023-08-07T07:52:21;17.50;99.90
11126;DHT22;5617;54.046;10.676;2023-08-07T07:54:30;17.50;99.90
11126;DHT22;5617;54.046;10.676;2023-08-07T07:56:40;17.50;99.90
11126;DHT22;5617;54.046;10.676;2023-08-07T07:58:48;17.60;99.90
11126;DHT22;5617;54.046;10.676;2023-08-07T08:00:55;17.60;99.90
11126;DHT22;5617;54.046;10.676;2023-08-07T08:03:03;17.60;99.90
11126;DHT22;5617;54.046;10.676;2023-08-07T08:05:11;17.60;99.90
11126;DHT22;5617;54.046;10.676;2023-08-07T08:07:19;17.70;99.90
11126;DHT22;5617;54.046;10.676;2023-08-07T08:09:29;17.70;99.90
11126;DHT22;5617;54.046;10.676;2023-08-07T08:11:37;17.70;99.90
11126;DHT22;5617;54.046;10.676;2023-08-07T08:13:45;17.70;99.90
11126;DHT22;5617;54.046;10.676;2023-08-07T08:15:52;17.70;99.90
11126;DHT22;5617;54.046;10.676;2023-08-07T08:18:00;17.70;99.90
11126;DHT22;5617;54.046;10.676;2023-08-07T08:20:09;17.70;99.90
11126;DHT22;5617;54.046;10.676;2023-08-07T08:22:18;17.70;99.90
11126;DHT22;5617;54.046;10.676;2023-08-07T08:24:26;17.70;99.90
11126;DHT22;5617;54.046;10.676;2023-08-07T08:26:35;17.70;99.90
11126;DHT22;5617;54.046;10.676;2023-08-07T08:28:43;17.80;99.90
11126;DHT22;5617;54.046;10.676;2023-08-07T08:30:50;17.80;99.90
11126;DHT22;5617;54.046;10.676;2023-08-07T08:32:58;17.80;99.90
11126;DHT22;5617;54.046;10.676;2023-08-07T08:35:07;17.90;99.90
11126;DHT22;5617;54.046;10.676;2023-08-07T08:37:14;17.80;99.90
11126;DHT22;5617;54.046;10.676;2023-08-07T08:39:22;17.80;99.90
11126;DHT22;5617;54.046;10.676;2023-08-07T08:41:30;17.80;99.90
11126;DHT22;5617;54.046;10.676;2023-08-07T08:43:40;17.90;99.90
11126;DHT22;5617;54.046;10.676;2023-08-07T08:45:50;18.00;99.90
11126;DHT22;5617;54.046;10.676;2023-08-07T08:48:01;18.00;99.90
11126;DHT22;5617;54.046;10.676;2023-08-07T08:50:10;18.10;99.90
11126;DHT22;5617;54.046;10.676;2023-08-07T08:52:19;18.20;99.90
11126;DHT22;5617;54.046;10.676;2023-08-07T08:54:28;18.30;99.90
11126;DHT22;5617;54.046;10.676;2023-08-07T08:56:37;18.30;99.90
11126;DHT22;5617;54.046;10.676;2023-08-07T08:58:46;18.40;99.90
11126;DHT22;5617;54.046;10.676;2023-08-07T09:00:54;18.50;99.80
11126;DHT22;5617;54.046;10.676;2023-08-07T09:03:03;18.50;99.50
11126;DHT22;5617;54.046;10.676;2023-08-07T09:05:11;18.60;99.40
11126;DHT22;5617;54.046;10.676;2023-08-07T09:07:20;18.60;99.40
11126;DHT22;5617;54.046;10.676;2023-08-07T09:09:28;18.70;99.20
11126;DHT22;5617;54.046;10.676;2023-08-07T09:11:38;18.70;98.90
11126;DHT22;5617;54.046;10.676;2023-08-07T09:13:47;18.70;98.70
11126;DHT22;5617;54.046;10.676;2023-08-07T09:15:58;18.80;98.70
11126;DHT22;5617;54.046;10.676;2023-08-07T09:18:08;18.90;98.40
11126;DHT22;5617;54.046;10.676;2023-08-07T09:20:17;18.90;98.20
11126;DHT22;5617;54.046;10.676;2023-08-07T09:22:26;18.90;98.00
11126;DHT22;5617;54.046;10.676;2023-08-07T09:24:34;18.90;97.80
11126;DHT22;5617;54.046;10.676;2023-08-07T09:26:42;18.90;97.80
11126;DHT22;5617;54.046;10.676;2023-08-07T09:28:53;19.00;97.80
11126;DHT22;5617;54.046;10.676;2023-08-07T09:31:01;19.10;97.90
11126;DHT22;5617;54.046;10.676;2023-08-07T09:33:09;19.10;97.90
11126;DHT22;5617;54.046;10.676;2023-08-07T09:35:21;19.00;97.00
11126;DHT22;5617;54.046;10.676;2023-08-07T09:37:30;19.10;97.20
11126;DHT22;5617;54.046;10.676;2023-08-07T09:39:40;19.10;97.20
11126;DHT22;5617;54.046;10.676;2023-08-07T09:41:51;19.20;96.90
11126;DHT22;5617;54.046;10.676;2023-08-07T09:44:06;19.20;96.90
11126;DHT22;5617;54.046;10.676;2023-08-07T09:46:14;19.30;96.80
11126;DHT22;5617;54.046;10.676;2023-08-07T09:48:23;19.30;96.70
11126;DHT22;5617;54.046;10.676;2023-08-07T09:50:32;19.30;96.00
11126;DHT22;5617;54.046;10.676;2023-08-07T09:52:40;19.30;95.90
11126;DHT22;5617;54.046;10.676;2023-08-07T09:54:48;19.40;95.80
11126;DHT22;5617;54.046;10.676;2023-08-07T09:56:56;19.40;95.40
11126;DHT22;5617;54.046;10.676;2023-08-07T09:59:07;19.50;95.30
11126;DHT22;5617;54.046;10.676;2023-08-07T10:01:16;19.50;95.00
11126;DHT22;5617;54.046;10.676;2023-08-07T10:03:25;19.50;94.90
11126;DHT22;5617;54.046;10.676;2023-08-07T10:05:33;19.50;94.90
11126;DHT22;5617;54.046;10.676;2023-08-07T10:07:41;19.40;95.00
11126;DHT22;5617;54.046;10.676;2023-08-07T10:09:48;19.30;95.00
11126;DHT22;5617;54.046;10.676;2023-08-07T10:11:56;19.10;95.00
11126;DHT22;5617;54.046;10.676;2023-08-07T10:14:06;19.00;95.20
11126;DHT22;5617;54.046;10.676;2023-08-07T10:16:14;19.00;95.40
11126;DHT22;5617;54.046;10.676;2023-08-07T10:18:25;19.00;95.50
11126;DHT22;5617;54.046;10.676;2023-08-07T10:20:32;19.00;95.70
11126;DHT22;5617;54.046;10.676;2023-08-07T10:22:41;18.90;95.80
11126;DHT22;5617;54.046;10.676;2023-08-07T10:24:50;18.90;95.90
11126;DHT22;5617;54.046;10.676;2023-08-07T10:27:08;18.80;96.00
11126;DHT22;5617;54.046;10.676;2023-08-07T10:29:19;18.60;96.50
11126;DHT22;5617;54.046;10.676;2023-08-07T10:31:29;18.50;97.00
11126;DHT22;5617;54.046;10.676;2023-08-07T10:33:38;18.40;97.60
11126;DHT22;5617;54.046;10.676;2023-08-07T10:35:47;18.40;97.40
11126;DHT22;5617;54.046;10.676;2023-08-07T10:38:05;18.50;97.60
11126;DHT22;5617;54.046;10.676;2023-08-07T10:40:12;18.50;97.50
11126;DHT22;5617;54.046;10.676;2023-08-07T10:42:21;18.60;97.30
11126;DHT22;5617;54.046;10.676;2023-08-07T10:44:31;18.70;97.30
11126;DHT22;5617;54.046;10.676;2023-08-07T10:46:47;18.80;97.70
11126;DHT22;5617;54.046;10.676;2023-08-07T10:48:55;18.80;97.40
11126;DHT22;5617;54.046;10.676;2023-08-07T10:51:04;18.80;97.30
11126;DHT22;5617;54.046;10.676;2023-08-07T10:53:19;18.90;97.30
11126;DHT22;5617;54.046;10.676;2023-08-07T10:55:30;18.90;97.10
11126;DHT22;5617;54.046;10.676;2023-08-07T10:57:40;18.90;97.00
11126;DHT22;5617;54.046;10.676;2023-08-07T10:59:55;18.80;96.80
11126;DHT22;5617;54.046;10.676;2023-08-07T11:02:22;18.80;96.70
11126;DHT22;5617;54.046;10.676;2023-08-07T11:04:30;18.80;96.00
11126;DHT22;5617;54.046;10.676;2023-08-07T11:06:40;18.90;95.80
11126;DHT22;5617;54.046;10.676;2023-08-07T11:08:49;18.90;95.60
11126;DHT22;5617;54.046;10.676;2023-08-07T11:11:01;18.90;95.10
11126;DHT22;5617;54.046;10.676;2023-08-07T11:13:11;18.90;94.80
11126;DHT22;5617;54.046;10.676;2023-08-07T11:15:20;18.90;94.70
11126;DHT22;5617;54.046;10.676;2023-08-07T11:17:29;19.00;94.70
11126;DHT22;5617;54.046;10.676;2023-08-07T11:19:37;19.00;94.70
11126;DHT22;5617;54.046;10.676;2023-08-07T11:21:46;19.00;94.80
11126;DHT22;5617;54.046;10.676;2023-08-07T11:23:55;18.90;94.90
11126;DHT22;5617;54.046;10.676;2023-08-07T11:26:03;18.80;95.00
11126;DHT22;5617;54.046;10.676;2023-08-07T11:28:12;18.90;95.40
11126;DHT22;5617;54.046;10.676;2023-08-07T11:30:21;18.80;95.50
11126;DHT22;5617;54.046;10.676;2023-08-07T11:32:29;18.70;95.40
11126;DHT22;5617;54.046;10.676;2023-08-07T11:34:38;18.70;95.60
11126;DHT22;5617;54.046;10.676;2023-08-07T11:36:46;18.50;95.80
11126;DHT22;5617;54.046;10.676;2023-08-07T11:38:55;18.30;96.10
11126;DHT22;5617;54.046;10.676;2023-08-07T11:41:04;18.30;96.30
11126;DHT22;5617;54.046;10.676;2023-08-07T11:43:15;18.30;96.50
11126;DHT22;5617;54.046;10.676;2023-08-07T11:45:25;18.50;96.50
11126;DHT22;5617;54.046;10.676;2023-08-07T11:47:33;18.80;96.50
11126;DHT22;5617;54.046;10.676;2023-08-07T11:49:41;18.90;96.70
11126;DHT22;5617;54.046;10.676;2023-08-07T11:51:53;18.90;96.40
11126;DHT22;5617;54.046;10.676;2023-08-07T11:54:02;18.70;96.90
11126;DHT22;5617;54.046;10.676;2023-08-07T11:56:13;18.40;97.50
11126;DHT22;5617;54.046;10.676;2023-08-07T11:58:22;18.00;98.30
11126;DHT22;5617;54.046;10.676;2023-08-07T12:00:33;17.80;98.90
11126;DHT22;5617;54.046;10.676;2023-08-07T12:02:44;17.60;99.10
11126;DHT22;5617;54.046;10.676;2023-08-07T12:04:57;17.60;99.20
11126;DHT22;5617;54.046;10.676;2023-08-07T12:07:08;17.50;99.30
11126;DHT22;5617;54.046;10.676;2023-08-07T12:09:19;17.60;99.30
11126;DHT22;5617;54.046;10.676;2023-08-07T12:11:35;17.70;99.30
11126;DHT22;5617;54.046;10.676;2023-08-07T12:13:44;17.90;99.40
11126;DHT22;5617;54.046;10.676;2023-08-07T12:15:55;18.30;99.20
11126;DHT22;5617;54.046;10.676;2023-08-07T12:18:06;18.70;99.00
11126;DHT22;5617;54.046;10.676;2023-08-07T12:20:16;18.90;98.60
11126;DHT22;5617;54.046;10.676;2023-08-07T12:22:28;19.00;98.30
11126;DHT22;5617;54.046;10.676;2023-08-07T12:24:37;19.00;98.10
11126;DHT22;5617;54.046;10.676;2023-08-07T12:26:44;19.00;97.90
11126;DHT22;5617;54.046;10.676;2023-08-07T12:28:52;19.00;97.80
11126;DHT22;5617;54.046;10.676;2023-08-07T12:31:02;18.90;97.50
11126;DHT22;5617;54.046;10.676;2023-08-07T12:33:10;19.00;97.40
11126;DHT22;5617;54.046;10.676;2023-08-07T12:35:18;19.00;97.20
11126;DHT22;5617;54.046;10.676;2023-08-07T12:37:26;19.30;96.70
11126;DHT22;5617;54.046;10.676;2023-08-07T12:39:37;19.40;96.40
11126;DHT22;5617;54.046;10.676;2023-08-07T12:41:49;19.40;96.00
11126;DHT22;5617;54.046;10.676;2023-08-07T12:44:01;19.50;95.20
11126;DHT22;5617;54.046;10.676;2023-08-07T12:46:10;19.70;94.00
11126;DHT22;5617;54.046;10.676;2023-08-07T12:48:23;19.90;93.70
11126;DHT22;5617;54.046;10.676;2023-08-07T12:50:33;19.90;93.10
11126;DHT22;5617;54.046;10.676;2023-08-07T12:52:41;19.90;92.70
11126;DHT22;5617;54.046;10.676;2023-08-07T12:54:48;19.90;92.80
11126;DHT22;5617;54.046;10.676;2023-08-07T12:56:57;20.00;92.40
11126;DHT22;5617;54.046;10.676;2023-08-07T12:59:05;20.00;92.00
11126;DHT22;5617;54.046;10.676;2023-08-07T13:01:15;20.10;91.80
11126;DHT22;5617;54.046;10.676;2023-08-07T13:03:25;20.10;91.40
11126;DHT22;5617;54.046;10.676;2023-08-07T13:05:33;20.40;91.40
11126;DHT22;5617;54.046;10.676;2023-08-07T13:07:46;20.60;90.80
11126;DHT22;5617;54.046;10.676;2023-08-07T13:09:54;20.90;90.80
11126;DHT22;5617;54.046;10.676;2023-08-07T13:12:04;21.20;90.00
11126;DHT22;5617;54.046;10.676;2023-08-07T13:14:12;21.30;89.20
11126;DHT22;5617;54.046;10.676;2023-08-07T13:16:21;21.30;89.20
11126;DHT22;5617;54.046;10.676;2023-08-07T13:18:32;21.40;88.70
11126;DHT22;5617;54.046;10.676;2023-08-07T13:20:40;21.60;88.20
11126;DHT22;5617;54.046;10.676;2023-08-07T13:22:48;21.70;87.10
11126;DHT22;5617;54.046;10.676;2023-08-07T13:24:55;21.50;86.90
11126;DHT22;5617;54.046;10.676;2023-08-07T13:27:04;21.50;86.20
11126;DHT22;5617;54.046;10.676;2023-08-07T13:29:11;21.20;86.60
11126;DHT22;5617;54.046;10.676;2023-08-07T13:31:21;20.90;87.70
11126;DHT22;5617;54.046;10.676;2023-08-07T13:33:29;20.60;88.40
11126;DHT22;5617;54.046;10.676;2023-08-07T13:35:37;20.40;89.60